createdAt,value
2019-02-17T00:00:04.812Z,0.00
2019-02-17T00:01:04.741Z,0.00
2019-02-17T00:02:04.746Z,0.00
2019-02-17T00:03:04.754Z,0.00
2019-02-17T00:04:04.772Z,0.00
2019-02-17T00:05:04.791Z,0.00
2019-02-17T00:06:04.819Z,0.00
2019-02-17T00:07:04.826Z,0.00
2019-02-17T00:08:04.834Z,0.00
2019-02-17T00:09:04.849Z,0.00
2019-02-17T00:11:04.891Z,0.00
2019-02-17T00:12:25.909Z,0.00
2019-02-17T00:13:04.922Z,0.00
2019-02-17T00:14:04.930Z,0.00
2019-02-17T00:15:04.942Z,0.00
2019-02-17T00:16:04.957Z,0.00
2019-02-17T00:17:04.975Z,0.00
2019-02-17T00:18:05.002Z,0.00
2019-02-17T00:19:05.022Z,0.00
2019-02-17T00:20:05.064Z,0.00
2019-02-17T00:21:05.048Z,0.00
2019-02-17T00:22:05.055Z,0.00
2019-02-17T00:23:05.083Z,0.00
2019-02-17T00:24:05.089Z,0.00
2019-02-17T00:25:05.120Z,0.00
2019-02-17T00:26:05.125Z,0.00
2019-02-17T00:27:05.138Z,0.00
2019-02-17T00:28:05.150Z,0.00
2019-02-17T00:29:05.168Z,0.00
2019-02-17T00:30:05.263Z,0.00
2019-02-17T00:31:05.195Z,0.00
2019-02-17T00:32:05.209Z,0.00
2019-02-17T00:33:05.228Z,0.00
2019-02-17T00:34:05.241Z,0.00
2019-02-17T00:35:05.278Z,0.00
2019-02-17T00:36:05.280Z,0.00
2019-02-17T00:37:05.289Z,0.00
2019-02-17T00:38:05.302Z,0.00
2019-02-17T00:39:05.327Z,0.00
2019-02-17T00:40:05.342Z,0.00
2019-02-17T00:41:05.360Z,0.00
2019-02-17T00:42:05.371Z,0.00
2019-02-17T00:43:05.412Z,0.00
2019-02-17T00:44:05.393Z,0.00
2019-02-17T00:45:05.463Z,0.00
2019-02-17T00:46:05.432Z,0.00
2019-02-17T00:47:05.444Z,0.00
2019-02-17T00:48:05.460Z,0.00
2019-02-17T00:49:05.473Z,0.00
2019-02-17T00:50:05.504Z,0.00
2019-02-17T00:51:05.504Z,0.00
2019-02-17T00:52:05.524Z,0.00
2019-02-17T00:53:05.547Z,0.00
2019-02-17T00:54:05.558Z,0.00
2019-02-17T00:55:05.601Z,0.00
2019-02-17T00:56:05.589Z,0.00
2019-02-17T00:57:05.606Z,0.00
2019-02-17T00:58:05.621Z,0.00
2019-02-17T00:59:10.034Z,0.00
2019-02-17T01:00:05.657Z,0.00
2019-02-17T01:01:05.677Z,0.00
2019-02-17T01:02:05.679Z,0.00
2019-02-17T01:03:05.691Z,0.00
2019-02-17T01:04:05.715Z,0.00
2019-02-17T01:05:05.734Z,0.00
2019-02-17T01:06:05.752Z,0.00
2019-02-17T01:07:05.754Z,0.00
2019-02-17T01:08:05.778Z,0.00
2019-02-17T01:09:05.791Z,0.00
2019-02-17T01:10:05.799Z,0.00
2019-02-17T01:11:05.818Z,0.00
2019-02-17T01:12:05.831Z,0.00
2019-02-17T01:13:05.848Z,0.00
2019-02-17T01:14:05.874Z,0.00
2019-02-17T01:15:05.914Z,0.00
2019-02-17T01:16:05.898Z,0.00
2019-02-17T01:17:05.924Z,0.00
2019-02-17T01:18:05.929Z,0.00
2019-02-17T01:19:05.939Z,0.00
2019-02-17T01:20:05.957Z,0.00
2019-02-17T01:21:05.967Z,0.00
2019-02-17T01:22:05.984Z,0.00
2019-02-17T01:23:05.996Z,0.00
2019-02-17T01:24:06.020Z,0.00
2019-02-17T01:25:06.033Z,0.00
2019-02-17T01:26:06.050Z,0.00
2019-02-17T01:27:06.077Z,0.00
2019-02-17T01:28:06.079Z,0.00
2019-02-17T01:29:06.096Z,0.00
2019-02-17T01:30:06.106Z,0.00
2019-02-17T01:31:08.394Z,0.00
2019-02-17T01:32:06.151Z,0.00
2019-02-17T01:33:06.156Z,0.00
2019-02-17T01:34:06.163Z,0.00
2019-02-17T01:35:06.184Z,0.00
2019-02-17T01:36:06.197Z,0.00
2019-02-17T01:37:06.239Z,0.00
2019-02-17T01:38:06.246Z,0.00
2019-02-17T01:40:06.267Z,0.00
2019-02-17T01:41:06.273Z,0.00
2019-02-17T01:42:06.295Z,0.00
2019-02-17T01:43:06.298Z,0.00
2019-02-17T01:44:06.333Z,0.00
2019-02-17T01:45:06.330Z,0.00
2019-02-17T01:46:06.352Z,0.00
2019-02-17T01:47:06.378Z,0.00
2019-02-17T01:48:06.390Z,0.00
2019-02-17T01:49:06.397Z,0.00
2019-02-17T01:50:06.412Z,0.00
2019-02-17T01:51:06.431Z,0.00
2019-02-17T01:52:06.444Z,0.00
2019-02-17T01:53:06.484Z,0.00
2019-02-17T01:54:06.470Z,0.00
2019-02-17T01:55:06.487Z,0.00
2019-02-17T01:56:06.504Z,0.00
2019-02-17T01:57:06.523Z,0.00
2019-02-17T01:58:06.540Z,0.00
2019-02-17T01:59:06.543Z,0.00
2019-02-17T02:00:06.558Z,0.00
2019-02-17T02:01:06.580Z,0.00
2019-02-17T02:02:06.585Z,0.00
2019-02-17T02:04:06.634Z,0.00
2019-02-17T02:05:06.644Z,0.00
2019-02-17T02:06:06.649Z,0.00
2019-02-17T02:07:06.736Z,0.00
2019-02-17T02:08:06.680Z,0.00
2019-02-17T02:10:06.709Z,0.00
2019-02-17T02:11:06.742Z,0.00
2019-02-17T02:12:06.744Z,0.00
2019-02-17T02:13:06.758Z,0.00
2019-02-17T02:14:06.786Z,0.00
2019-02-17T02:15:06.793Z,0.00
2019-02-17T02:16:06.796Z,0.00
2019-02-17T02:17:06.864Z,0.00
2019-02-17T02:18:06.829Z,0.00
2019-02-17T02:19:06.860Z,0.00
2019-02-17T02:20:06.860Z,0.00
2019-02-17T02:21:06.870Z,0.00
2019-02-17T02:22:06.901Z,0.00
2019-02-17T02:23:06.905Z,0.00
2019-02-17T02:24:06.914Z,0.00
2019-02-17T02:25:06.934Z,0.00
2019-02-17T02:26:06.960Z,0.00
2019-02-17T02:27:06.968Z,0.00
2019-02-17T02:28:06.976Z,0.00
2019-02-17T02:29:06.997Z,0.00
2019-02-17T02:30:07.005Z,0.00
2019-02-17T02:31:07.023Z,0.00
2019-02-17T02:32:07.033Z,0.00
2019-02-17T02:33:07.054Z,0.00
2019-02-17T02:34:07.063Z,0.00
2019-02-17T02:35:07.090Z,0.00
2019-02-17T02:36:07.110Z,0.00
2019-02-17T02:37:07.108Z,0.00
2019-02-17T02:38:07.125Z,0.00
2019-02-17T02:39:07.148Z,0.00
2019-02-17T02:40:07.157Z,0.00
2019-02-17T02:41:07.171Z,0.00
2019-02-17T02:42:07.240Z,0.00
2019-02-17T02:43:07.201Z,0.00
2019-02-17T02:44:07.222Z,0.00
2019-02-17T02:45:07.238Z,0.00
2019-02-17T02:46:07.241Z,0.00
2019-02-17T02:47:07.255Z,0.00
2019-02-17T02:48:07.278Z,0.00
2019-02-17T02:49:07.288Z,0.00
2019-02-17T02:50:07.300Z,0.00
2019-02-17T02:51:07.311Z,0.00
2019-02-17T02:52:07.380Z,0.00
2019-02-17T02:53:07.349Z,0.00
2019-02-17T02:54:07.358Z,0.00
2019-02-17T02:55:07.376Z,0.00
2019-02-17T02:56:07.387Z,0.00
2019-02-17T02:57:07.406Z,0.00
2019-02-17T02:58:07.420Z,0.00
2019-02-17T02:59:07.431Z,0.00
2019-02-17T03:00:07.447Z,0.00
2019-02-17T03:01:07.461Z,0.00
2019-02-17T03:02:07.570Z,0.00
2019-02-17T03:03:07.495Z,0.00
2019-02-17T03:04:07.520Z,0.00
2019-02-17T03:05:07.520Z,0.00
2019-02-17T03:06:07.534Z,0.00
2019-02-17T03:07:07.547Z,0.00
2019-02-17T03:08:07.573Z,0.00
2019-02-17T03:09:07.581Z,0.00
2019-02-17T03:10:07.596Z,0.00
2019-02-17T03:11:07.621Z,0.00
2019-02-17T03:12:07.618Z,0.00
2019-02-17T03:13:07.641Z,0.00
2019-02-17T03:14:07.653Z,0.00
2019-02-17T03:15:07.680Z,0.00
2019-02-17T03:16:07.686Z,0.00
2019-02-17T03:17:07.704Z,0.00
2019-02-17T03:18:07.713Z,0.00
2019-02-17T03:19:07.720Z,0.00
2019-02-17T03:20:07.744Z,0.00
2019-02-17T03:21:07.759Z,0.00
2019-02-17T03:22:07.770Z,0.00
2019-02-17T03:23:07.787Z,0.00
2019-02-17T03:24:07.923Z,0.00
2019-02-17T03:25:07.808Z,0.00
2019-02-17T03:26:07.840Z,0.00
2019-02-17T03:27:07.908Z,0.00
2019-02-17T03:28:07.874Z,0.00
2019-02-17T03:29:07.867Z,0.00
2019-02-17T03:30:07.885Z,0.00
2019-02-17T03:31:07.909Z,0.00
2019-02-17T03:32:07.960Z,0.00
2019-02-17T03:33:07.932Z,0.00
2019-02-17T03:34:07.942Z,0.00
2019-02-17T03:35:07.959Z,0.00
2019-02-17T03:36:07.973Z,0.00
2019-02-17T03:37:08.018Z,0.00
2019-02-17T03:38:07.999Z,0.00
2019-02-17T03:39:08.015Z,0.00
2019-02-17T03:40:08.048Z,0.00
2019-02-17T03:41:08.046Z,0.00
2019-02-17T03:42:08.066Z,0.00
2019-02-17T03:43:08.083Z,0.00
2019-02-17T03:44:08.094Z,0.00
2019-02-17T03:45:08.110Z,0.00
2019-02-17T03:46:08.116Z,0.00
2019-02-17T03:47:08.142Z,0.00
2019-02-17T03:48:08.156Z,0.00
2019-02-17T03:49:08.159Z,0.00
2019-02-17T03:50:08.178Z,0.00
2019-02-17T03:51:08.186Z,0.00
2019-02-17T03:52:08.203Z,0.00
2019-02-17T03:53:08.215Z,0.00
2019-02-17T03:54:08.232Z,0.00
2019-02-17T03:55:08.257Z,0.00
2019-02-17T03:56:08.266Z,0.00
2019-02-17T03:57:08.302Z,0.00
2019-02-17T03:58:08.294Z,0.00
2019-02-17T03:59:08.305Z,0.00
2019-02-17T04:00:16.539Z,0.00
2019-02-17T04:01:08.332Z,0.00
2019-02-17T04:02:08.348Z,0.00
2019-02-17T04:03:08.357Z,0.00
2019-02-17T04:04:08.373Z,0.00
2019-02-17T04:05:08.421Z,0.00
2019-02-17T04:06:08.403Z,0.00
2019-02-17T04:07:08.432Z,0.00
2019-02-17T04:08:08.456Z,0.00
2019-02-17T04:10:08.474Z,0.00
2019-02-17T04:11:08.475Z,0.00
2019-02-17T04:12:08.491Z,0.00
2019-02-17T04:13:08.502Z,0.00
2019-02-17T04:14:08.529Z,0.00
2019-02-17T04:15:08.526Z,0.00
2019-02-17T04:16:08.545Z,0.00
2019-02-17T04:17:08.565Z,0.00
2019-02-17T04:18:08.575Z,0.00
2019-02-17T04:19:08.593Z,0.00
2019-02-17T04:20:08.605Z,0.00
2019-02-17T04:21:08.616Z,0.00
2019-02-17T04:22:08.631Z,0.00
2019-02-17T04:23:08.638Z,0.00
2019-02-17T04:24:08.661Z,0.00
2019-02-17T04:25:08.675Z,0.00
2019-02-17T04:26:08.683Z,0.00
2019-02-17T04:27:08.699Z,0.00
2019-02-17T04:28:08.720Z,0.00
2019-02-17T04:29:10.315Z,0.00
2019-02-17T04:30:08.747Z,0.00
2019-02-17T04:31:08.761Z,0.00
2019-02-17T04:32:08.793Z,0.00
2019-02-17T04:33:08.783Z,0.00
2019-02-17T04:35:08.814Z,0.00
2019-02-17T04:36:08.836Z,0.00
2019-02-17T04:37:08.851Z,0.00
2019-02-17T04:38:08.853Z,0.00
2019-02-17T04:39:08.870Z,0.00
2019-02-17T04:40:08.889Z,0.00
2019-02-17T04:41:08.913Z,0.00
2019-02-17T04:42:09.074Z,0.00
2019-02-17T04:43:08.930Z,0.00
2019-02-17T04:44:08.943Z,0.00
2019-02-17T04:45:08.959Z,0.00
2019-02-17T04:46:08.975Z,0.00
2019-02-17T04:47:08.990Z,0.00
2019-02-17T04:48:08.994Z,0.00
2019-02-17T04:49:09.015Z,0.00
2019-02-17T04:50:09.023Z,0.00
2019-02-17T04:51:09.037Z,0.00
2019-02-17T04:52:09.068Z,0.00
2019-02-17T04:53:09.069Z,0.00
2019-02-17T04:54:09.080Z,0.00
2019-02-17T04:55:09.093Z,0.00
2019-02-17T04:56:09.109Z,0.00
2019-02-17T04:57:09.238Z,0.00
2019-02-17T04:58:09.137Z,0.00
2019-02-17T04:59:09.147Z,0.00
2019-02-17T05:00:09.159Z,0.00
2019-02-17T05:01:09.193Z,0.00
2019-02-17T05:02:09.200Z,0.00
2019-02-17T05:03:09.203Z,0.00
2019-02-17T05:04:09.230Z,0.00
2019-02-17T05:05:09.243Z,0.00
2019-02-17T05:06:09.257Z,0.00
2019-02-17T05:07:09.303Z,0.00
2019-02-17T05:08:09.274Z,0.00
2019-02-17T05:09:09.287Z,0.00
2019-02-17T05:10:09.311Z,0.00
2019-02-17T05:11:09.326Z,0.00
2019-02-17T05:12:09.329Z,0.00
2019-02-17T05:14:09.364Z,0.00
2019-02-17T05:15:09.374Z,0.00
2019-02-17T05:16:09.387Z,0.00
2019-02-17T05:17:09.532Z,0.00
2019-02-17T05:18:09.450Z,0.00
2019-02-17T05:19:09.434Z,0.00
2019-02-17T05:20:09.449Z,0.00
2019-02-17T05:21:09.498Z,0.00
2019-02-17T05:22:09.476Z,0.00
2019-02-17T05:23:09.495Z,0.00
2019-02-17T05:24:09.507Z,0.00
2019-02-17T05:25:09.530Z,0.00
2019-02-17T05:26:09.530Z,0.00
2019-02-17T05:27:09.602Z,0.00
2019-02-17T05:28:09.559Z,0.00
2019-02-17T05:29:09.568Z,0.00
2019-02-17T05:30:09.587Z,0.00
2019-02-17T05:31:09.605Z,0.00
2019-02-17T05:32:09.622Z,0.00
2019-02-17T05:33:09.624Z,0.00
2019-02-17T05:34:09.645Z,0.00
2019-02-17T05:35:09.669Z,0.00
2019-02-17T05:36:09.663Z,0.00
2019-02-17T05:37:09.757Z,0.00
2019-02-17T05:38:09.692Z,0.00
2019-02-17T05:39:09.719Z,0.00
2019-02-17T05:40:09.726Z,0.00
2019-02-17T05:41:09.742Z,0.00
2019-02-17T05:42:09.762Z,0.00
2019-02-17T05:43:09.787Z,0.00
2019-02-17T05:44:09.796Z,0.00
2019-02-17T05:45:09.796Z,0.00
2019-02-17T05:46:09.807Z,0.00
2019-02-17T05:47:09.826Z,0.00
2019-02-17T05:48:09.833Z,0.00
2019-02-17T05:49:09.871Z,0.00
2019-02-17T05:50:09.862Z,0.00
2019-02-17T05:51:09.881Z,0.00
2019-02-17T05:52:09.898Z,0.00
2019-02-17T05:53:09.917Z,0.00
2019-02-17T05:54:09.924Z,0.00
2019-02-17T05:55:09.953Z,0.00
2019-02-17T05:56:09.943Z,0.00
2019-02-17T05:57:09.961Z,0.00
2019-02-17T05:58:09.988Z,0.00
2019-02-17T05:59:10.070Z,0.00
2019-02-17T06:00:09.997Z,0.00
2019-02-17T06:01:10.015Z,0.00
2019-02-17T06:02:10.041Z,0.00
2019-02-17T06:03:10.046Z,0.00
2019-02-17T06:04:10.055Z,0.00
2019-02-17T06:05:10.074Z,0.00
2019-02-17T06:06:10.082Z,0.00
2019-02-17T06:07:10.098Z,0.00
2019-02-17T06:08:10.113Z,0.00
2019-02-17T06:09:10.199Z,0.00
2019-02-17T06:10:10.139Z,0.00
2019-02-17T06:11:10.152Z,0.00
2019-02-17T06:12:10.172Z,0.00
2019-02-17T06:13:10.182Z,0.00
2019-02-17T06:14:10.205Z,0.00
2019-02-17T06:15:10.210Z,0.00
2019-02-17T06:16:10.221Z,0.00
2019-02-17T06:17:10.237Z,0.00
2019-02-17T06:18:10.251Z,0.00
2019-02-17T06:19:10.285Z,0.00
2019-02-17T06:20:10.280Z,0.00
2019-02-17T06:21:10.297Z,0.00
2019-02-17T06:22:10.307Z,0.00
2019-02-17T06:23:10.318Z,0.00
2019-02-17T06:24:10.341Z,0.00
2019-02-17T06:25:10.353Z,0.00
2019-02-17T06:26:10.360Z,0.00
2019-02-17T06:27:10.384Z,0.00
2019-02-17T06:28:10.393Z,0.00
2019-02-17T06:29:10.551Z,0.00
2019-02-17T06:30:10.416Z,0.00
2019-02-17T06:31:14.523Z,0.00
2019-02-17T06:32:10.462Z,0.00
2019-02-17T06:33:10.470Z,0.00
2019-02-17T06:35:10.482Z,0.00
2019-02-17T06:36:10.492Z,0.00
2019-02-17T06:37:10.514Z,0.00
2019-02-17T06:38:10.522Z,0.00
2019-02-17T06:39:10.544Z,0.00
2019-02-17T06:40:10.548Z,0.00
2019-02-17T06:41:10.597Z,0.00
2019-02-17T06:42:10.595Z,0.00
2019-02-17T06:43:10.589Z,0.00
2019-02-17T06:44:10.653Z,0.00
2019-02-17T06:45:10.620Z,0.00
2019-02-17T06:47:10.691Z,0.00
2019-02-17T06:48:10.709Z,0.00
2019-02-17T06:49:10.718Z,0.00
2019-02-17T06:50:10.731Z,0.00
2019-02-17T06:51:10.752Z,0.00
2019-02-17T06:52:10.761Z,0.00
2019-02-17T06:53:31.796Z,0.00
2019-02-17T06:54:10.921Z,0.00
2019-02-17T06:55:10.810Z,0.00
2019-02-17T06:56:10.821Z,0.00
2019-02-17T06:57:10.866Z,0.00
2019-02-17T06:58:10.836Z,0.00
2019-02-17T06:59:31.884Z,0.00
2019-02-17T07:00:10.872Z,0.00
2019-02-17T07:01:10.882Z,0.00
2019-02-17T07:02:10.913Z,0.00
2019-02-17T07:03:10.904Z,0.00
2019-02-17T07:04:10.973Z,0.00
2019-02-17T07:05:10.921Z,0.00
2019-02-17T07:06:10.925Z,0.00
2019-02-17T07:07:10.935Z,0.00
2019-02-17T07:08:10.936Z,0.00
2019-02-17T07:09:10.947Z,0.00
2019-02-17T07:10:10.969Z,0.00
2019-02-17T07:11:11.006Z,0.00
2019-02-17T07:12:11.002Z,0.00
2019-02-17T07:13:11.002Z,0.00
2019-02-17T07:14:11.106Z,0.00
2019-02-17T07:15:11.031Z,0.00
2019-02-17T07:16:11.056Z,0.00
2019-02-17T07:17:11.064Z,0.00
2019-02-17T07:18:11.072Z,0.00
2019-02-17T07:19:11.167Z,0.00
2019-02-17T07:20:11.098Z,0.00
2019-02-17T07:21:11.139Z,0.00
2019-02-17T07:22:11.154Z,0.00
2019-02-17T07:23:11.138Z,0.00
2019-02-17T07:24:11.192Z,0.00
2019-02-17T07:25:11.167Z,0.00
2019-02-17T07:26:11.221Z,0.00
2019-02-17T07:27:11.207Z,0.00
2019-02-17T07:28:11.208Z,0.00
2019-02-17T07:29:11.226Z,0.00
2019-02-17T07:30:11.245Z,0.00
2019-02-17T07:31:11.247Z,0.00
2019-02-17T07:32:11.266Z,5.63
2019-02-17T07:33:11.282Z,5.63
2019-02-17T07:34:11.291Z,5.63
2019-02-17T07:35:11.306Z,5.63
2019-02-17T07:36:11.334Z,5.63
2019-02-17T07:37:11.342Z,5.63
2019-02-17T07:38:11.344Z,5.63
2019-02-17T07:39:11.358Z,5.63
2019-02-17T07:40:11.381Z,5.63
2019-02-17T07:41:11.389Z,5.63
2019-02-17T07:42:11.408Z,5.63
2019-02-17T07:43:11.420Z,5.63
2019-02-17T07:44:11.427Z,5.63
2019-02-17T07:45:11.444Z,5.63
2019-02-17T07:46:11.473Z,5.63
2019-02-17T07:47:11.471Z,5.63
2019-02-17T07:48:11.488Z,5.63
2019-02-17T07:49:11.551Z,5.63
2019-02-17T07:50:11.521Z,11.25
2019-02-17T07:51:11.530Z,11.25
2019-02-17T07:52:11.591Z,11.25
2019-02-17T07:53:11.559Z,5.63
2019-02-17T07:54:11.569Z,5.63
2019-02-17T07:55:11.588Z,5.63
2019-02-17T07:56:11.597Z,5.63
2019-02-17T07:57:11.620Z,5.63
2019-02-17T07:58:11.631Z,11.25
2019-02-17T07:59:11.639Z,11.25
2019-02-17T08:00:11.661Z,16.88
2019-02-17T08:01:11.698Z,22.50
2019-02-17T08:02:11.728Z,33.75
2019-02-17T08:03:11.695Z,50.63
2019-02-17T08:04:11.710Z,73.13
2019-02-17T08:05:11.726Z,78.75
2019-02-17T08:06:11.732Z,101.25
2019-02-17T08:07:11.753Z,101.25
2019-02-17T08:08:11.793Z,112.50
2019-02-17T08:09:11.779Z,118.13
2019-02-17T08:10:11.831Z,123.75
2019-02-17T08:11:11.822Z,118.13
2019-02-17T08:12:11.834Z,123.75
2019-02-17T08:13:11.857Z,112.50
2019-02-17T08:14:11.854Z,106.88
2019-02-17T08:15:11.914Z,106.88
2019-02-17T08:16:11.952Z,101.25
2019-02-17T08:17:11.957Z,101.25
2019-02-17T08:19:11.940Z,101.25
2019-02-17T08:20:11.954Z,101.25
2019-02-17T08:21:11.976Z,95.63
2019-02-17T08:22:11.986Z,90.00
2019-02-17T08:23:12.007Z,84.38
2019-02-17T08:24:12.030Z,84.38
2019-02-17T08:25:21.474Z,84.38
2019-02-17T08:26:12.053Z,90.00
2019-02-17T08:27:12.157Z,95.63
2019-02-17T08:28:12.085Z,101.25
2019-02-17T08:29:12.109Z,101.25
2019-02-17T08:30:12.129Z,101.25
2019-02-17T08:31:12.142Z,106.88
2019-02-17T08:32:12.165Z,101.25
2019-02-17T08:33:12.177Z,95.63
2019-02-17T08:34:12.202Z,95.63
2019-02-17T08:35:12.211Z,95.63
2019-02-17T08:36:12.245Z,95.63
2019-02-17T08:37:12.344Z,84.38
2019-02-17T08:38:12.264Z,78.75
2019-02-17T08:39:12.284Z,84.38
2019-02-17T08:40:12.304Z,84.38
2019-02-17T08:41:12.317Z,84.38
2019-02-17T08:42:12.349Z,95.63
2019-02-17T08:43:12.362Z,101.25
2019-02-17T08:44:12.378Z,95.63
2019-02-17T08:45:12.404Z,84.38
2019-02-17T08:46:12.416Z,90.00
2019-02-17T08:47:12.504Z,95.63
2019-02-17T08:48:12.449Z,95.63
2019-02-17T08:49:12.471Z,95.63
2019-02-17T08:50:12.489Z,90.00
2019-02-17T08:51:12.519Z,90.00
2019-02-17T08:52:12.539Z,90.00
2019-02-17T08:53:12.539Z,90.00
2019-02-17T08:54:12.555Z,90.00
2019-02-17T08:55:12.579Z,95.63
2019-02-17T08:56:12.608Z,101.25
2019-02-17T08:57:12.629Z,101.25
2019-02-17T08:58:12.641Z,106.88
2019-02-17T08:59:12.652Z,118.13
2019-02-17T09:00:12.685Z,123.75
2019-02-17T09:01:12.709Z,123.75
2019-02-17T09:03:12.752Z,118.13
2019-02-17T09:04:12.762Z,112.50
2019-02-17T09:05:12.785Z,106.88
2019-02-17T09:06:12.791Z,106.88
2019-02-17T09:07:12.815Z,118.13
2019-02-17T09:08:12.827Z,123.75
2019-02-17T09:09:12.974Z,129.38
2019-02-17T09:10:12.873Z,135.00
2019-02-17T09:11:12.885Z,146.25
2019-02-17T09:12:12.962Z,157.50
2019-02-17T09:13:12.921Z,157.50
2019-02-17T09:14:12.945Z,163.13
2019-02-17T09:15:12.977Z,163.13
2019-02-17T09:16:12.988Z,163.13
2019-02-17T09:17:13.028Z,163.13
2019-02-17T09:18:13.029Z,163.13
2019-02-17T09:19:13.094Z,163.13
2019-02-17T09:20:13.067Z,163.13
2019-02-17T09:21:13.091Z,163.13
2019-02-17T09:22:13.117Z,163.13
2019-02-17T09:23:13.127Z,157.50
2019-02-17T09:24:13.146Z,151.88
2019-02-17T09:25:13.168Z,151.88
2019-02-17T09:26:13.196Z,140.63
2019-02-17T09:27:13.225Z,123.75
2019-02-17T09:28:13.255Z,106.88
2019-02-17T09:29:13.338Z,118.13
2019-02-17T09:30:13.287Z,129.38
2019-02-17T09:31:13.298Z,135.00
2019-02-17T09:32:16.210Z,135.00
2019-02-17T09:33:13.348Z,123.75
2019-02-17T09:34:13.365Z,101.25
2019-02-17T09:35:13.390Z,84.38
2019-02-17T09:36:13.417Z,78.75
2019-02-17T09:37:13.437Z,78.75
2019-02-17T09:38:13.447Z,78.75
2019-02-17T09:39:13.579Z,90.00
2019-02-17T09:40:13.504Z,101.25
2019-02-17T09:41:13.527Z,118.13
2019-02-17T09:42:13.573Z,123.75
2019-02-17T09:43:13.612Z,118.13
2019-02-17T09:44:13.573Z,106.88
2019-02-17T09:45:13.595Z,90.00
2019-02-17T09:46:13.611Z,84.38
2019-02-17T09:47:13.645Z,84.38
2019-02-17T09:48:13.687Z,78.75
2019-02-17T09:49:13.678Z,61.88
2019-02-17T09:50:13.699Z,56.25
2019-02-17T09:51:13.826Z,56.25
2019-02-17T09:52:13.741Z,61.88
2019-02-17T09:53:13.766Z,61.88
2019-02-17T09:54:13.784Z,67.50
2019-02-17T09:55:13.801Z,73.13
2019-02-17T09:56:13.821Z,78.75
2019-02-17T09:57:13.836Z,95.63
2019-02-17T09:58:13.866Z,106.88
2019-02-17T09:59:13.885Z,118.13
2019-02-17T10:00:13.901Z,129.38
2019-02-17T10:01:13.931Z,135.00
2019-02-17T10:02:13.941Z,146.25
2019-02-17T10:03:13.961Z,151.88
2019-02-17T10:04:13.984Z,157.50
2019-02-17T10:05:14.006Z,151.88
2019-02-17T10:06:14.015Z,157.50
2019-02-17T10:07:14.035Z,163.13
2019-02-17T10:08:14.062Z,174.38
2019-02-17T10:09:14.086Z,180.00
2019-02-17T10:10:14.121Z,196.88
2019-02-17T10:11:14.161Z,208.13
2019-02-17T10:12:14.159Z,213.75
2019-02-17T10:13:14.165Z,219.38
2019-02-17T10:14:14.185Z,208.13
2019-02-17T10:15:14.209Z,185.63
2019-02-17T10:16:14.242Z,191.25
2019-02-17T10:17:14.255Z,180.00
2019-02-17T10:18:14.277Z,151.88
2019-02-17T10:19:14.300Z,129.38
2019-02-17T10:20:14.330Z,135.00
2019-02-17T10:21:14.348Z,129.38
2019-02-17T10:22:14.382Z,135.00
2019-02-17T10:23:14.400Z,146.25
2019-02-17T10:24:14.406Z,151.88
2019-02-17T10:25:14.442Z,135.00
2019-02-17T10:26:14.463Z,123.75
2019-02-17T10:27:14.497Z,118.13
2019-02-17T10:28:14.499Z,118.13
2019-02-17T10:29:14.517Z,118.13
2019-02-17T10:30:14.539Z,118.13
2019-02-17T10:31:14.564Z,123.75
2019-02-17T10:32:14.580Z,129.38
2019-02-17T10:33:14.609Z,129.38
2019-02-17T10:34:14.620Z,140.63
2019-02-17T10:35:14.650Z,157.50
2019-02-17T10:36:14.674Z,168.75
2019-02-17T10:37:14.694Z,168.75
2019-02-17T10:38:14.726Z,157.50
2019-02-17T10:39:14.732Z,146.25
2019-02-17T10:40:14.756Z,146.25
2019-02-17T10:41:14.781Z,140.63
2019-02-17T10:42:14.790Z,129.38
2019-02-17T10:43:14.817Z,129.38
2019-02-17T10:44:14.844Z,135.00
2019-02-17T10:45:14.867Z,140.63
2019-02-17T10:46:14.879Z,140.63
2019-02-17T10:47:14.912Z,129.38
2019-02-17T10:48:14.940Z,129.38
2019-02-17T10:49:14.952Z,129.38
2019-02-17T10:50:15.085Z,129.38
2019-02-17T10:51:14.993Z,135.00
2019-02-17T10:52:15.015Z,135.00
2019-02-17T10:53:15.064Z,135.00
2019-02-17T10:54:15.068Z,140.63
2019-02-17T10:55:15.075Z,140.63
2019-02-17T10:56:15.105Z,140.63
2019-02-17T10:57:15.113Z,151.88
2019-02-17T10:58:15.146Z,146.25
2019-02-17T10:59:15.180Z,146.25
2019-02-17T11:00:15.173Z,151.88
2019-02-17T11:01:15.236Z,151.88
2019-02-17T11:02:15.217Z,151.88
2019-02-17T11:03:15.272Z,157.50
2019-02-17T11:04:15.261Z,157.50
2019-02-17T11:05:15.331Z,163.13
2019-02-17T11:06:15.320Z,163.13
2019-02-17T11:07:15.334Z,163.13
2019-02-17T11:08:15.371Z,157.50
2019-02-17T11:09:15.389Z,157.50
2019-02-17T11:10:15.430Z,163.13
2019-02-17T11:11:15.414Z,163.13
2019-02-17T11:12:15.437Z,163.13
2019-02-17T11:13:15.461Z,163.13
2019-02-17T11:14:15.493Z,163.13
2019-02-17T11:15:15.527Z,163.13
2019-02-17T11:16:15.525Z,168.75
2019-02-17T11:18:15.578Z,168.75
2019-02-17T11:19:15.601Z,168.75
2019-02-17T11:20:15.624Z,174.38
2019-02-17T11:21:15.638Z,174.38
2019-02-17T11:22:22.906Z,174.38
2019-02-17T11:23:15.701Z,174.38
2019-02-17T11:24:15.704Z,174.38
2019-02-17T11:25:15.783Z,174.38
2019-02-17T11:26:15.757Z,180.00
2019-02-17T11:27:15.783Z,180.00
2019-02-17T11:28:15.799Z,180.00
2019-02-17T11:29:15.822Z,180.00
2019-02-17T11:30:15.848Z,185.63
2019-02-17T11:31:15.869Z,185.63
2019-02-17T11:32:15.957Z,185.63
2019-02-17T11:33:15.919Z,196.88
2019-02-17T11:34:15.938Z,202.50
2019-02-17T11:35:15.981Z,202.50
2019-02-17T11:36:15.997Z,208.13
2019-02-17T11:37:16.011Z,208.13
2019-02-17T11:38:16.033Z,208.13
2019-02-17T11:39:16.078Z,213.75
2019-02-17T11:41:16.186Z,213.75
2019-02-17T11:42:16.226Z,219.38
2019-02-17T11:43:16.164Z,225.00
2019-02-17T11:44:16.182Z,225.00
2019-02-17T11:45:16.212Z,225.00
2019-02-17T11:46:16.241Z,230.63
2019-02-17T11:47:16.263Z,230.63
2019-02-17T11:48:16.288Z,236.25
2019-02-17T11:49:16.475Z,236.25
2019-02-17T11:50:16.364Z,236.25
2019-02-17T11:51:16.378Z,230.63
2019-02-17T11:52:16.417Z,225.00
2019-02-17T11:53:16.441Z,213.75
2019-02-17T11:54:16.459Z,213.75
2019-02-17T11:55:16.498Z,208.13
2019-02-17T11:56:16.512Z,208.13
2019-02-17T11:57:16.539Z,196.88
2019-02-17T11:58:16.567Z,196.88
2019-02-17T11:59:16.637Z,191.25
2019-02-17T12:00:16.630Z,180.00
2019-02-17T12:01:16.658Z,168.75
2019-02-17T12:02:24.697Z,151.88
2019-02-17T12:03:16.719Z,135.00
2019-02-17T12:04:16.760Z,129.38
2019-02-17T12:06:16.816Z,123.75
2019-02-17T12:07:16.829Z,118.13
2019-02-17T12:08:16.851Z,118.13
2019-02-17T12:09:16.884Z,112.50
2019-02-17T12:10:16.904Z,112.50
2019-02-17T12:11:16.940Z,112.50
2019-02-17T12:12:16.958Z,112.50
2019-02-17T12:13:16.993Z,106.88
2019-02-17T12:14:17.014Z,106.88
2019-02-17T12:15:17.042Z,106.88
2019-02-17T12:16:17.083Z,101.25
2019-02-17T12:17:17.104Z,101.25
2019-02-17T12:18:17.240Z,95.63
2019-02-17T12:19:17.152Z,90.00
2019-02-17T12:20:17.176Z,90.00
2019-02-17T12:21:17.195Z,84.38
2019-02-17T12:22:17.218Z,78.75
2019-02-17T12:23:17.256Z,73.13
2019-02-17T12:24:17.306Z,73.13
2019-02-17T12:25:17.309Z,73.13
2019-02-17T12:26:17.317Z,73.13
2019-02-17T12:27:17.360Z,78.75
2019-02-17T12:28:17.442Z,73.13
2019-02-17T12:29:17.393Z,78.75
2019-02-17T12:30:17.429Z,78.75
2019-02-17T12:31:17.457Z,78.75
2019-02-17T12:32:17.481Z,78.75
2019-02-17T12:33:19.402Z,78.75
2019-02-17T12:34:17.517Z,73.13
2019-02-17T12:35:17.677Z,73.13
2019-02-17T12:36:17.559Z,73.13
2019-02-17T12:37:17.663Z,67.50
2019-02-17T12:38:17.615Z,67.50
2019-02-17T12:39:17.636Z,61.88
2019-02-17T12:40:17.663Z,61.88
2019-02-17T12:41:17.678Z,56.25
2019-02-17T12:42:17.734Z,56.25
2019-02-17T12:43:17.743Z,50.63
2019-02-17T12:44:17.757Z,50.63
2019-02-17T12:45:18.475Z,50.63
2019-02-17T12:46:17.816Z,45.00
2019-02-17T12:47:17.827Z,45.00
2019-02-17T12:48:17.842Z,45.00
2019-02-17T12:49:17.868Z,45.00
2019-02-17T12:50:17.905Z,45.00
2019-02-17T12:51:17.926Z,45.00
2019-02-17T12:52:17.936Z,45.00
2019-02-17T12:53:17.970Z,45.00
2019-02-17T12:54:17.990Z,45.00
2019-02-17T12:55:18.033Z,45.00
2019-02-17T12:56:18.042Z,45.00
2019-02-17T12:57:18.058Z,45.00
2019-02-17T12:58:18.089Z,45.00
2019-02-17T12:59:18.105Z,45.00
2019-02-17T13:00:18.128Z,45.00
2019-02-17T13:01:18.144Z,45.00
2019-02-17T13:02:18.172Z,45.00
2019-02-17T13:03:28.065Z,39.38
2019-02-17T13:04:18.216Z,39.38
2019-02-17T13:05:18.232Z,39.38
2019-02-17T13:06:18.267Z,39.38
2019-02-17T13:07:18.440Z,45.00
2019-02-17T13:08:18.309Z,39.38
2019-02-17T13:09:18.354Z,33.75
2019-02-17T13:10:18.369Z,33.75
2019-02-17T13:11:18.401Z,33.75
2019-02-17T13:12:18.407Z,33.75
2019-02-17T13:13:18.436Z,33.75
2019-02-17T13:14:18.463Z,33.75
2019-02-17T13:15:18.479Z,33.75